sensor_id;sensor_type;location;lat;lon;timestamp;P1;durP1;ratioP1;P2;durP2;ratioP2
8656;SDS011;4366;50.764;7.184;2023-04-24T00:04:29;0.60;;;0.60;;
8656;SDS011;4366;50.764;7.184;2023-04-24T00:09:31;0.60;;;0.60;;
8656;SDS011;4366;50.764;7.184;2023-04-24T00:14:33;0.70;;;0.70;;
8656;SDS011;4366;50.764;7.184;2023-04-24T00:19:37;0.70;;;0.70;;
8656;SDS011;4366;50.764;7.184;2023-04-24T00:24:39;0.50;;;0.50;;
8656;SDS011;4366;50.764;7.184;2023-04-24T00:29:40;0.70;;;0.70;;
8656;SDS011;4366;50.764;7.184;2023-04-24T00:34:43;0.57;;;0.57;;
8656;SDS011;4366;50.764;7.184;2023-04-24T00:39:44;0.63;;;0.63;;
8656;SDS011;4366;50.764;7.184;2023-04-24T00:44:46;0.50;;;0.50;;
8656;SDS011;4366;50.764;7.184;2023-04-24T00:49:48;0.60;;;0.60;;
8656;SDS011;4366;50.764;7.184;2023-04-24T00:54:50;0.60;;;0.60;;
8656;SDS011;4366;50.764;7.184;2023-04-24T00:59:52;0.60;;;0.60;;
8656;SDS011;4366;50.764;7.184;2023-04-24T01:04:54;0.70;;;0.70;;
8656;SDS011;4366;50.764;7.184;2023-04-24T01:09:56;0.60;;;0.60;;
8656;SDS011;4366;50.764;7.184;2023-04-24T01:20:10;0.57;;;0.57;;
8656;SDS011;4366;50.764;7.184;2023-04-24T01:25:11;0.40;;;0.40;;
8656;SDS011;4366;50.764;7.184;2023-04-24T01:30:15;0.60;;;0.60;;
8656;SDS011;4366;50.764;7.184;2023-04-24T01:35:16;0.70;;;0.70;;
8656;SDS011;4366;50.764;7.184;2023-04-24T01:40:18;0.60;;;0.60;;
8656;SDS011;4366;50.764;7.184;2023-04-24T01:45:20;0.77;;;0.77;;
8656;SDS011;4366;50.764;7.184;2023-04-24T01:50:21;1.30;;;0.77;;
8656;SDS011;4366;50.764;7.184;2023-04-24T01:55:23;0.70;;;0.70;;
8656;SDS011;4366;50.764;7.184;2023-04-24T02:00:25;1.00;;;1.00;;
8656;SDS011;4366;50.764;7.184;2023-04-24T02:05:27;0.80;;;0.80;;
8656;SDS011;4366;50.764;7.184;2023-04-24T02:10:30;0.93;;;0.93;;
8656;SDS011;4366;50.764;7.184;2023-04-24T02:15:32;0.90;;;0.90;;
8656;SDS011;4366;50.764;7.184;2023-04-24T02:20:35;1.00;;;1.00;;
8656;SDS011;4366;50.764;7.184;2023-04-24T02:25:36;2.50;;;1.03;;
8656;SDS011;4366;50.764;7.184;2023-04-24T02:30:38;1.60;;;1.50;;
8656;SDS011;4366;50.764;7.184;2023-04-24T02:35:39;1.70;;;1.60;;
8656;SDS011;4366;50.764;7.184;2023-04-24T02:40:42;1.50;;;1.50;;
8656;SDS011;4366;50.764;7.184;2023-04-24T02:45:45;1.60;;;1.50;;
8656;SDS011;4366;50.764;7.184;2023-04-24T02:50:46;1.80;;;1.70;;
8656;SDS011;4366;50.764;7.184;2023-04-24T02:55:49;1.90;;;1.80;;
8656;SDS011;4366;50.764;7.184;2023-04-24T03:00:54;2.03;;;1.83;;
8656;SDS011;4366;50.764;7.184;2023-04-24T03:05:58;1.93;;;1.83;;
8656;SDS011;4366;50.764;7.184;2023-04-24T03:11:02;2.23;;;1.80;;
8656;SDS011;4366;50.764;7.184;2023-04-24T03:16:03;1.80;;;1.70;;
8656;SDS011;4366;50.764;7.184;2023-04-24T03:21:06;1.90;;;1.80;;
8656;SDS011;4366;50.764;7.184;2023-04-24T03:26:08;2.07;;;1.93;;
8656;SDS011;4366;50.764;7.184;2023-04-24T03:31:13;1.90;;;1.80;;
8656;SDS011;4366;50.764;7.184;2023-04-24T03:36:27;2.00;;;1.67;;
8656;SDS011;4366;50.764;7.184;2023-04-24T03:41:29;2.20;;;2.10;;
8656;SDS011;4366;50.764;7.184;2023-04-24T03:46:41;1.93;;;1.80;;
8656;SDS011;4366;50.764;7.184;2023-04-24T03:51:43;2.47;;;2.27;;
8656;SDS011;4366;50.764;7.184;2023-04-24T03:56:55;3.07;;;2.50;;
8656;SDS011;4366;50.764;7.184;2023-04-24T04:01:59;2.23;;;2.03;;
8656;SDS011;4366;50.764;7.184;2023-04-24T04:07:01;2.00;;;1.77;;
8656;SDS011;4366;50.764;7.184;2023-04-24T04:12:04;2.30;;;2.13;;
8656;SDS011;4366;50.764;7.184;2023-04-24T04:17:07;2.00;;;1.90;;
8656;SDS011;4366;50.764;7.184;2023-04-24T04:22:09;1.87;;;1.77;;
8656;SDS011;4366;50.764;7.184;2023-04-24T04:27:20;2.37;;;2.13;;
8656;SDS011;4366;50.764;7.184;2023-04-24T04:32:31;2.07;;;1.97;;
8656;SDS011;4366;50.764;7.184;2023-04-24T04:37:34;2.53;;;2.30;;
8656;SDS011;4366;50.764;7.184;2023-04-24T04:42:48;2.60;;;2.40;;
8656;SDS011;4366;50.764;7.184;2023-04-24T04:47:55;2.40;;;1.70;;
8656;SDS011;4366;50.764;7.184;2023-04-24T04:52:57;1.90;;;1.80;;
8656;SDS011;4366;50.764;7.184;2023-04-24T04:58:05;2.03;;;1.83;;
8656;SDS011;4366;50.764;7.184;2023-04-24T05:03:08;2.00;;;1.90;;
8656;SDS011;4366;50.764;7.184;2023-04-24T05:08:25;2.20;;;2.07;;
8656;SDS011;4366;50.764;7.184;2023-04-24T05:13:29;2.40;;;2.20;;
8656;SDS011;4366;50.764;7.184;2023-04-24T05:18:44;2.40;;;2.20;;
8656;SDS011;4366;50.764;7.184;2023-04-24T05:23:49;2.50;;;2.30;;
8656;SDS011;4366;50.764;7.184;2023-04-24T05:29:01;2.50;;;2.00;;
8656;SDS011;4366;50.764;7.184;2023-04-24T05:34:03;2.23;;;2.03;;
8656;SDS011;4366;50.764;7.184;2023-04-24T05:39:06;2.80;;;2.33;;
8656;SDS011;4366;50.764;7.184;2023-04-24T05:44:09;2.30;;;1.90;;
8656;SDS011;4366;50.764;7.184;2023-04-24T05:49:11;2.00;;;1.90;;
8656;SDS011;4366;50.764;7.184;2023-04-24T05:54:14;2.43;;;2.30;;
8656;SDS011;4366;50.764;7.184;2023-04-24T06:04:23;2.27;;;2.07;;
8656;SDS011;4366;50.764;7.184;2023-04-24T06:09:32;2.27;;;2.07;;
8656;SDS011;4366;50.764;7.184;2023-04-24T06:14:37;2.60;;;2.40;;
8656;SDS011;4366;50.764;7.184;2023-04-24T06:19:52;2.23;;;2.13;;
8656;SDS011;4366;50.764;7.184;2023-04-24T06:24:56;2.53;;;2.40;;
8656;SDS011;4366;50.764;7.184;2023-04-24T06:29:58;2.27;;;2.07;;
8656;SDS011;4366;50.764;7.184;2023-04-24T06:35:00;3.10;;;2.57;;
8656;SDS011;4366;50.764;7.184;2023-04-24T06:40:02;2.47;;;2.27;;
8656;SDS011;4366;50.764;7.184;2023-04-24T06:45:06;2.20;;;2.07;;
8656;SDS011;4366;50.764;7.184;2023-04-24T06:50:08;2.40;;;2.20;;
8656;SDS011;4366;50.764;7.184;2023-04-24T06:55:10;2.50;;;2.30;;
8656;SDS011;4366;50.764;7.184;2023-04-24T07:00:12;2.43;;;2.27;;
8656;SDS011;4366;50.764;7.184;2023-04-24T07:05:14;2.47;;;2.10;;
8656;SDS011;4366;50.764;7.184;2023-04-24T07:10:16;2.00;;;1.70;;
8656;SDS011;4366;50.764;7.184;2023-04-24T07:15:19;2.00;;;1.90;;
8656;SDS011;4366;50.764;7.184;2023-04-24T07:20:21;2.37;;;1.97;;
8656;SDS011;4366;50.764;7.184;2023-04-24T07:25:23;2.10;;;2.00;;
8656;SDS011;4366;50.764;7.184;2023-04-24T07:30:25;2.53;;;2.00;;
8656;SDS011;4366;50.764;7.184;2023-04-24T07:35:27;1.73;;;1.70;;
8656;SDS011;4366;50.764;7.184;2023-04-24T07:40:29;1.43;;;1.43;;
8656;SDS011;4366;50.764;7.184;2023-04-24T07:45:30;1.87;;;1.77;;
8656;SDS011;4366;50.764;7.184;2023-04-24T07:50:34;1.33;;;1.33;;
8656;SDS011;4366;50.764;7.184;2023-04-24T07:55:38;1.57;;;1.47;;
8656;SDS011;4366;50.764;7.184;2023-04-24T08:00:39;1.30;;;1.30;;
8656;SDS011;4366;50.764;7.184;2023-04-24T08:05:41;1.30;;;1.30;;
8656;SDS011;4366;50.764;7.184;2023-04-24T08:10:44;1.13;;;1.13;;
8656;SDS011;4366;50.764;7.184;2023-04-24T08:15:46;1.50;;;1.40;;
8656;SDS011;4366;50.764;7.184;2023-04-24T08:20:47;1.20;;;1.20;;
8656;SDS011;4366;50.764;7.184;2023-04-24T08:25:49;1.10;;;1.10;;
8656;SDS011;4366;50.764;7.184;2023-04-24T08:30:51;1.23;;;1.23;;
8656;SDS011;4366;50.764;7.184;2023-04-24T08:35:55;1.40;;;1.17;;
8656;SDS011;4366;50.764;7.184;2023-04-24T08:40:58;1.00;;;1.00;;
8656;SDS011;4366;50.764;7.184;2023-04-24T08:46:00;1.40;;;1.40;;
8656;SDS011;4366;50.764;7.184;2023-04-24T08:51:06;1.87;;;1.37;;
8656;SDS011;4366;50.764;7.184;2023-04-24T08:56:10;1.17;;;1.17;;
8656;SDS011;4366;50.764;7.184;2023-04-24T09:01:12;1.30;;;1.30;;
8656;SDS011;4366;50.764;7.184;2023-04-24T09:06:15;1.30;;;1.30;;
8656;SDS011;4366;50.764;7.184;2023-04-24T09:11:17;1.90;;;1.80;;
8656;SDS011;4366;50.764;7.184;2023-04-24T09:16:20;1.50;;;1.40;;
8656;SDS011;4366;50.764;7.184;2023-04-24T09:21:22;1.60;;;1.50;;
8656;SDS011;4366;50.764;7.184;2023-04-24T09:26:24;2.00;;;1.90;;
8656;SDS011;4366;50.764;7.184;2023-04-24T09:31:26;1.60;;;1.60;;
8656;SDS011;4366;50.764;7.184;2023-04-24T09:36:34;1.77;;;1.47;;
8656;SDS011;4366;50.764;7.184;2023-04-24T09:41:50;1.80;;;1.70;;
8656;SDS011;4366;50.764;7.184;2023-04-24T09:46:53;1.70;;;1.60;;
8656;SDS011;4366;50.764;7.184;2023-04-24T09:52:03;1.97;;;1.87;;
8656;SDS011;4366;50.764;7.184;2023-04-24T09:57:08;1.80;;;1.70;;
8656;SDS011;4366;50.764;7.184;2023-04-24T10:02:20;1.83;;;1.73;;
8656;SDS011;4366;50.764;7.184;2023-04-24T10:07:25;2.07;;;1.97;;
8656;SDS011;4366;50.764;7.184;2023-04-24T10:12:27;1.60;;;1.53;;
8656;SDS011;4366;50.764;7.184;2023-04-24T10:17:31;1.90;;;1.80;;
8656;SDS011;4366;50.764;7.184;2023-04-24T10:22:49;2.23;;;1.60;;
8656;SDS011;4366;50.764;7.184;2023-04-24T10:27:51;2.23;;;2.13;;
8656;SDS011;4366;50.764;7.184;2023-04-24T10:32:54;2.03;;;1.93;;
8656;SDS011;4366;50.764;7.184;2023-04-24T10:38:09;1.77;;;1.67;;
8656;SDS011;4366;50.764;7.184;2023-04-24T10:43:15;1.73;;;1.70;;
8656;SDS011;4366;50.764;7.184;2023-04-24T10:48:18;2.03;;;1.93;;
8656;SDS011;4366;50.764;7.184;2023-04-24T10:53:21;1.70;;;1.60;;
8656;SDS011;4366;50.764;7.184;2023-04-24T10:58:36;1.90;;;1.80;;
8656;SDS011;4366;50.764;7.184;2023-04-24T11:03:41;1.83;;;1.73;;
8656;SDS011;4366;50.764;7.184;2023-04-24T11:08:52;3.00;;;1.70;;
8656;SDS011;4366;50.764;7.184;2023-04-24T11:14:03;2.10;;;1.90;;
8656;SDS011;4366;50.764;7.184;2023-04-24T11:19:08;1.57;;;1.47;;
8656;SDS011;4366;50.764;7.184;2023-04-24T11:24:24;3.00;;;2.00;;
8656;SDS011;4366;50.764;7.184;2023-04-24T11:34:51;3.73;;;2.30;;
8656;SDS011;4366;50.764;7.184;2023-04-24T11:40:05;3.43;;;2.63;;
8656;SDS011;4366;50.764;7.184;2023-04-24T11:45:09;3.07;;;2.63;;
8656;SDS011;4366;50.764;7.184;2023-04-24T11:50:13;2.60;;;2.40;;
8656;SDS011;4366;50.764;7.184;2023-04-24T12:00:22;3.30;;;2.60;;
8656;SDS011;4366;50.764;7.184;2023-04-24T12:05:26;4.73;;;2.97;;
8656;SDS011;4366;50.764;7.184;2023-04-24T12:10:29;3.83;;;2.40;;
8656;SDS011;4366;50.764;7.184;2023-04-24T12:15:32;2.10;;;2.00;;
8656;SDS011;4366;50.764;7.184;2023-04-24T12:20:35;2.30;;;2.07;;
8656;SDS011;4366;50.764;7.184;2023-04-24T12:25:38;2.30;;;2.10;;
8656;SDS011;4366;50.764;7.184;2023-04-24T12:30:42;5.33;;;2.13;;
8656;SDS011;4366;50.764;7.184;2023-04-24T12:35:53;5.03;;;2.13;;
8656;SDS011;4366;50.764;7.184;2023-04-24T12:41:14;2.77;;;2.57;;
8656;SDS011;4366;50.764;7.184;2023-04-24T12:46:17;3.40;;;2.17;;
8656;SDS011;4366;50.764;7.184;2023-04-24T12:51:22;2.33;;;2.13;;
8656;SDS011;4366;50.764;7.184;2023-04-24T12:56:24;2.40;;;2.20;;
8656;SDS011;4366;50.764;7.184;2023-04-24T13:01:26;2.73;;;2.53;;
8656;SDS011;4366;50.764;7.184;2023-04-24T13:06:27;3.00;;;2.70;;
8656;SDS011;4366;50.764;7.184;2023-04-24T13:11:29;3.33;;;2.60;;
8656;SDS011;4366;50.764;7.184;2023-04-24T13:16:31;4.37;;;3.27;;
8656;SDS011;4366;50.764;7.184;2023-04-24T13:21:32;5.60;;;3.30;;
8656;SDS011;4366;50.764;7.184;2023-04-24T13:26:34;2.60;;;2.40;;
8656;SDS011;4366;50.764;7.184;2023-04-24T13:31:36;3.23;;;2.30;;
8656;SDS011;4366;50.764;7.184;2023-04-24T13:36:37;3.40;;;2.23;;
8656;SDS011;4366;50.764;7.184;2023-04-24T13:41:39;2.43;;;2.00;;
8656;SDS011;4366;50.764;7.184;2023-04-24T13:46:41;2.63;;;2.33;;
8656;SDS011;4366;50.764;7.184;2023-04-24T13:51:45;2.20;;;2.10;;
8656;SDS011;4366;50.764;7.184;2023-04-24T13:56:49;2.53;;;2.27;;
8656;SDS011;4366;50.764;7.184;2023-04-24T14:01:51;3.67;;;2.50;;
8656;SDS011;4366;50.764;7.184;2023-04-24T14:06:52;1.77;;;1.67;;
8656;SDS011;4366;50.764;7.184;2023-04-24T14:11:54;2.87;;;2.33;;
8656;SDS011;4366;50.764;7.184;2023-04-24T14:16:56;2.40;;;2.20;;
8656;SDS011;4366;50.764;7.184;2023-04-24T14:21:58;2.87;;;2.03;;
8656;SDS011;4366;50.764;7.184;2023-04-24T14:27:00;2.40;;;2.20;;
8656;SDS011;4366;50.764;7.184;2023-04-24T14:32:01;2.93;;;2.17;;
8656;SDS011;4366;50.764;7.184;2023-04-24T14:37:03;2.50;;;2.30;;
8656;SDS011;4366;50.764;7.184;2023-04-24T14:42:05;3.07;;;2.50;;
8656;SDS011;4366;50.764;7.184;2023-04-24T14:47:06;3.57;;;2.40;;
8656;SDS011;4366;50.764;7.184;2023-04-24T14:52:08;3.87;;;2.37;;
8656;SDS011;4366;50.764;7.184;2023-04-24T14:57:09;3.90;;;2.70;;
8656;SDS011;4366;50.764;7.184;2023-04-24T15:02:12;2.20;;;1.97;;
8656;SDS011;4366;50.764;7.184;2023-04-24T15:07:17;2.77;;;2.20;;
8656;SDS011;4366;50.764;7.184;2023-04-24T15:12:19;2.00;;;1.90;;
8656;SDS011;4366;50.764;7.184;2023-04-24T15:17:20;2.53;;;2.37;;
8656;SDS011;4366;50.764;7.184;2023-04-24T15:22:22;1.80;;;1.70;;
8656;SDS011;4366;50.764;7.184;2023-04-24T15:27:24;3.00;;;2.10;;
8656;SDS011;4366;50.764;7.184;2023-04-24T15:32:25;2.10;;;2.00;;
8656;SDS011;4366;50.764;7.184;2023-04-24T15:37:27;2.57;;;1.80;;
8656;SDS011;4366;50.764;7.184;2023-04-24T15:42:29;2.50;;;2.10;;
8656;SDS011;4366;50.764;7.184;2023-04-24T15:47:31;2.93;;;2.20;;
8656;SDS011;4366;50.764;7.184;2023-04-24T15:52:33;1.80;;;1.70;;
8656;SDS011;4366;50.764;7.184;2023-04-24T15:57:35;1.90;;;1.80;;
8656;SDS011;4366;50.764;7.184;2023-04-24T16:02:40;2.13;;;1.90;;
8656;SDS011;4366;50.764;7.184;2023-04-24T16:08:23;2.97;;;1.90;;
8656;SDS011;4366;50.764;7.184;2023-04-24T16:13:24;2.27;;;2.07;;
8656;SDS011;4366;50.764;7.184;2023-04-24T16:18:26;4.03;;;2.30;;
8656;SDS011;4366;50.764;7.184;2023-04-24T16:23:28;2.77;;;2.07;;
8656;SDS011;4366;50.764;7.184;2023-04-24T16:28:30;2.10;;;2.00;;
8656;SDS011;4366;50.764;7.184;2023-04-24T16:33:32;4.47;;;2.10;;
8656;SDS011;4366;50.764;7.184;2023-04-24T16:38:34;2.13;;;2.00;;
8656;SDS011;4366;50.764;7.184;2023-04-24T16:43:36;3.27;;;2.30;;
8656;SDS011;4366;50.764;7.184;2023-04-24T16:48:38;2.20;;;2.00;;
8656;SDS011;4366;50.764;7.184;2023-04-24T16:53:40;2.07;;;1.97;;
8656;SDS011;4366;50.764;7.184;2023-04-24T16:58:42;2.20;;;2.00;;
8656;SDS011;4366;50.764;7.184;2023-04-24T17:03:44;1.90;;;1.80;;
8656;SDS011;4366;50.764;7.184;2023-04-24T17:08:46;3.33;;;2.30;;
8656;SDS011;4366;50.764;7.184;2023-04-24T17:13:49;2.40;;;2.20;;
8656;SDS011;4366;50.764;7.184;2023-04-24T17:18:50;2.43;;;2.13;;
8656;SDS011;4366;50.764;7.184;2023-04-24T17:23:52;2.63;;;2.40;;
8656;SDS011;4366;50.764;7.184;2023-04-24T17:28:54;3.60;;;2.20;;
8656;SDS011;4366;50.764;7.184;2023-04-24T17:33:56;3.27;;;2.00;;
8656;SDS011;4366;50.764;7.184;2023-04-24T17:38:57;2.57;;;2.10;;
8656;SDS011;4366;50.764;7.184;2023-04-24T17:43:59;3.80;;;3.50;;
8656;SDS011;4366;50.764;7.184;2023-04-24T18:01:41;2.80;;;2.60;;
8656;SDS011;4366;50.764;7.184;2023-04-24T18:18:46;4.60;;;3.70;;
8656;SDS011;4366;50.764;7.184;2023-04-24T18:23:48;5.43;;;3.70;;
8656;SDS011;4366;50.764;7.184;2023-04-24T18:28:50;3.90;;;2.73;;
8656;SDS011;4366;50.764;7.184;2023-04-24T18:33:52;3.97;;;3.23;;
8656;SDS011;4366;50.764;7.184;2023-04-24T18:38:54;4.77;;;3.80;;
8656;SDS011;4366;50.764;7.184;2023-04-24T18:43:56;2.60;;;2.40;;
8656;SDS011;4366;50.764;7.184;2023-04-24T18:48:59;2.10;;;2.00;;
8656;SDS011;4366;50.764;7.184;2023-04-24T18:54:01;2.30;;;2.13;;
8656;SDS011;4366;50.764;7.184;2023-04-24T18:59:02;2.40;;;2.20;;
8656;SDS011;4366;50.764;7.184;2023-04-24T19:04:04;1.97;;;1.87;;
8656;SDS011;4366;50.764;7.184;2023-04-24T19:09:05;2.10;;;2.00;;
8656;SDS011;4366;50.764;7.184;2023-04-24T19:14:07;1.40;;;1.35;;
8656;SDS011;4366;50.764;7.184;2023-04-24T19:19:09;2.17;;;2.03;;
8656;SDS011;4366;50.764;7.184;2023-04-24T19:24:11;1.70;;;1.60;;
8656;SDS011;4366;50.764;7.184;2023-04-24T19:29:13;1.57;;;1.57;;
8656;SDS011;4366;50.764;7.184;2023-04-24T19:34:14;2.27;;;1.80;;
8656;SDS011;4366;50.764;7.184;2023-04-24T19:39:17;1.80;;;1.70;;
8656;SDS011;4366;50.764;7.184;2023-04-24T19:44:19;2.47;;;2.27;;
8656;SDS011;4366;50.764;7.184;2023-04-24T19:49:20;1.70;;;1.60;;
8656;SDS011;4366;50.764;7.184;2023-04-24T19:54:22;2.23;;;2.03;;
8656;SDS011;4366;50.764;7.184;2023-04-24T19:59:24;3.83;;;2.47;;
8656;SDS011;4366;50.764;7.184;2023-04-24T20:04:25;2.03;;;1.93;;
8656;SDS011;4366;50.764;7.184;2023-04-24T20:09:27;1.83;;;1.40;;
8656;SDS011;4366;50.764;7.184;2023-04-24T20:14:32;1.70;;;1.60;;
8656;SDS011;4366;50.764;7.184;2023-04-24T20:19:33;1.57;;;1.47;;
8656;SDS011;4366;50.764;7.184;2023-04-24T20:24:35;1.53;;;1.53;;
8656;SDS011;4366;50.764;7.184;2023-04-24T20:29:37;2.10;;;1.33;;
8656;SDS011;4366;50.764;7.184;2023-04-24T20:34:39;2.27;;;1.40;;
8656;SDS011;4366;50.764;7.184;2023-04-24T20:39:41;2.00;;;1.83;;
8656;SDS011;4366;50.764;7.184;2023-04-24T20:44:44;1.97;;;1.80;;
8656;SDS011;4366;50.764;7.184;2023-04-24T20:49:46;1.77;;;1.23;;
8656;SDS011;4366;50.764;7.184;2023-04-24T20:54:48;2.23;;;1.90;;
8656;SDS011;4366;50.764;7.184;2023-04-24T20:59:51;1.70;;;1.60;;
8656;SDS011;4366;50.764;7.184;2023-04-24T21:04:52;1.53;;;1.50;;
8656;SDS011;4366;50.764;7.184;2023-04-24T21:09:54;1.70;;;1.40;;
8656;SDS011;4366;50.764;7.184;2023-04-24T21:14:56;1.33;;;1.33;;
8656;SDS011;4366;50.764;7.184;2023-04-24T21:19:57;2.17;;;1.97;;
8656;SDS011;4366;50.764;7.184;2023-04-24T21:24:59;1.80;;;1.70;;
8656;SDS011;4366;50.764;7.184;2023-04-24T21:30:04;1.60;;;1.60;;
8656;SDS011;4366;50.764;7.184;2023-04-24T21:35:06;1.60;;;1.60;;
8656;SDS011;4366;50.764;7.184;2023-04-24T21:40:09;1.40;;;1.40;;
8656;SDS011;4366;50.764;7.184;2023-04-24T21:45:11;2.20;;;2.10;;
8656;SDS011;4366;50.764;7.184;2023-04-24T21:50:13;1.90;;;1.57;;
8656;SDS011;4366;50.764;7.184;2023-04-24T21:55:17;1.97;;;1.87;;
8656;SDS011;4366;50.764;7.184;2023-04-24T22:00:19;2.27;;;2.07;;
8656;SDS011;4366;50.764;7.184;2023-04-24T22:05:21;3.37;;;2.00;;
8656;SDS011;4366;50.764;7.184;2023-04-24T22:10:24;2.43;;;1.93;;
8656;SDS011;4366;50.764;7.184;2023-04-24T22:15:27;2.17;;;2.00;;
8656;SDS011;4366;50.764;7.184;2023-04-24T22:20:28;1.83;;;1.73;;
8656;SDS011;4366;50.764;7.184;2023-04-24T22:25:30;1.80;;;1.70;;
8656;SDS011;4366;50.764;7.184;2023-04-24T22:30:32;2.00;;;1.90;;
8656;SDS011;4366;50.764;7.184;2023-04-24T22:35:34;2.50;;;2.00;;
8656;SDS011;4366;50.764;7.184;2023-04-24T22:40:37;1.83;;;1.73;;
8656;SDS011;4366;50.764;7.184;2023-04-24T22:45:40;2.00;;;1.90;;
8656;SDS011;4366;50.764;7.184;2023-04-24T22:50:42;2.13;;;2.03;;
8656;SDS011;4366;50.764;7.184;2023-04-24T22:55:43;1.90;;;1.80;;
8656;SDS011;4366;50.764;7.184;2023-04-24T23:00:45;3.33;;;1.90;;
8656;SDS011;4366;50.764;7.184;2023-04-24T23:05:47;2.57;;;2.37;;
8656;SDS011;4366;50.764;7.184;2023-04-24T23:10:49;2.10;;;1.97;;
8656;SDS011;4366;50.764;7.184;2023-04-24T23:15:51;2.20;;;2.10;;
8656;SDS011;4366;50.764;7.184;2023-04-24T23:20:57;2.17;;;2.07;;
8656;SDS011;4366;50.764;7.184;2023-04-24T23:26:02;2.07;;;1.97;;
8656;SDS011;4366;50.764;7.184;2023-04-24T23:31:04;1.90;;;1.80;;
8656;SDS011;4366;50.764;7.184;2023-04-24T23:36:06;2.10;;;2.00;;
8656;SDS011;4366;50.764;7.184;2023-04-24T23:41:08;2.50;;;2.40;;
8656;SDS011;4366;50.764;7.184;2023-04-24T23:46:09;2.83;;;1.90;;
8656;SDS011;4366;50.764;7.184;2023-04-24T23:51:11;2.43;;;2.00;;
8656;SDS011;4366;50.764;7.184;2023-04-24T23:56:13;2.87;;;2.20;;
